Time;durP1;ratioP1;P1;durP2;ratioP2;P2;SDS_P1;SDS_P2;PMS_P1;PMS_P2;Temp;Humidity;BMP_temperature;BMP_pressure;BME280_temperature;BME280_humidity;BME280_pressure;Samples;Min_cycle;Max_cycle;Signal;HPM_P1;HPM_P2
2021/09/23 00:00:12;;;;;;;5.77;5.37;;;;;;;6.56;100.00;98873.31;5070270;28;20222;-67
2021/09/23 00:03:09;;;;;;;6.47;5.73;;;;;;;6.55;100.00;98875.09;5072824;28;20206;-67
2021/09/23 00:05:40;;;;;;;5.93;5.43;;;;;;;6.56;100.00;98884.69;5076700;28;20208;-68
2021/09/23 00:08:08;;;;;;;6.70;6.10;;;;;;;6.58;100.00;98882.78;5033685;28;20929;-67
2021/09/23 00:10:39;;;;;;;5.50;5.10;;;;;;;6.53;100.00;98879.66;5076387;28;20582;-67
2021/09/23 00:13:08;;;;;;;6.40;5.80;;;;;;;6.54;100.00;98875.25;5068733;28;20509;-67
2021/09/23 00:15:37;;;;;;;6.03;5.43;;;;;;;6.54;100.00;98878.69;5071638;28;20214;-67
2021/09/23 00:18:08;;;;;;;6.07;5.67;;;;;;;6.54;100.00;98880.50;5066036;28;20222;-66
2021/09/23 00:20:38;;;;;;;7.60;6.80;;;;;;;6.56;100.00;98883.88;5070739;28;20203;-68
2021/09/23 00:23:07;;;;;;;8.20;6.47;;;;;;;6.54;100.00;98877.88;5034615;28;20210;-68
2021/09/23 00:25:36;;;;;;;6.10;5.50;;;;;;;6.51;100.00;98879.78;5076167;28;20285;-68
2021/09/23 00:28:06;;;;;;;6.67;6.07;;;;;;;6.51;100.00;98881.56;5072026;28;20199;-66
2021/09/23 00:30:35;;;;;;;6.40;5.90;;;;;;;6.55;100.00;98876.91;5074583;28;20202;-68
2021/09/23 00:33:04;;;;;;;6.80;6.20;;;;;;;6.45;100.00;98875.00;5072241;28;20599;-67
2021/09/23 00:35:33;;;;;;;6.57;5.93;;;;;;;6.41;100.00;98885.84;5076104;28;20206;-67
2021/09/23 00:38:01;;;;;;;6.73;6.13;;;;;;;6.36;100.00;98876.50;5035576;28;20215;-67
2021/09/23 00:40:29;;;;;;;6.53;5.90;;;;;;;6.32;100.00;98877.69;5018122;28;20657;-66
2021/09/23 00:42:57;;;;;;;7.27;5.80;;;;;;;6.35;100.00;98869.56;5071224;28;20209;-68
2021/09/23 00:45:25;;;;;;;5.67;5.27;;;;;;;6.34;100.00;98865.25;5062570;28;20714;-67
2021/09/23 00:47:52;;;;;;;6.60;6.10;;;;;;;6.36;100.00;98876.50;5069585;28;20633;-67
2021/09/23 00:50:22;;;;;;;5.90;5.30;;;;;;;6.36;100.00;98879.16;5072337;28;20764;-67
2021/09/23 00:52:50;;;;;;;6.27;5.67;;;;;;;6.31;100.00;98878.66;5074584;28;20241;-68
2021/09/23 00:55:19;;;;;;;6.57;6.00;;;;;;;6.28;100.00;98876.25;5031368;28;20427;-68
2021/09/23 00:57:47;;;;;;;6.77;5.57;;;;;;;6.30;100.00;98874.34;5071726;28;20218;-65
2021/09/23 01:00:17;;;;;;;6.90;6.30;;;;;;;6.17;100.00;98873.56;5062730;28;20233;-67
2021/09/23 01:02:45;;;;;;;6.30;5.77;;;;;;;6.12;100.00;98867.81;5066964;28;20796;-65
2021/09/23 01:05:14;;;;;;;6.37;5.47;;;;;;;6.04;100.00;98866.59;5072241;28;20258;-66
2021/09/23 01:07:47;;;;;;;6.47;5.70;;;;;;;6.04;100.00;98858.69;5075319;28;20207;-67
2021/09/23 01:10:15;;;;;;;6.43;5.93;;;;;;;5.98;100.00;98856.50;5031322;28;20237;-67
2021/09/23 01:12:45;;;;;;;6.17;5.77;;;;;;;6.02;100.00;98846.59;5064795;28;20583;-67
2021/09/23 01:15:15;;;;;;;6.10;5.60;;;;;;;5.93;100.00;98843.66;5073212;28;20555;-67
2021/09/23 01:17:43;;;;;;;6.17;5.57;;;;;;;5.94;100.00;98836.63;5065101;28;20472;-67
2021/09/23 01:20:16;;;;;;;5.93;5.43;;;;;;;5.89;100.00;98834.31;5068310;28;20225;-66
2021/09/23 01:22:46;;;;;;;6.50;5.87;;;;;;;5.88;100.00;98831.81;5076680;28;20551;-67
2021/09/23 01:25:16;;;;;;;5.97;5.50;;;;;;;5.85;100.00;98834.66;5040053;28;20194;-67
2021/09/23 01:27:44;;;;;;;6.13;5.40;;;;;;;5.89;100.00;98833.50;5068826;28;20202;-67
2021/09/23 01:30:13;;;;;;;6.10;5.50;;;;;;;5.80;100.00;98833.19;5069703;28;20237;-66
2021/09/23 01:32:42;;;;;;;5.00;4.63;;;;;;;5.85;100.00;98837.28;5063536;28;20391;-67
2021/09/23 01:35:10;;;;;;;5.80;5.30;;;;;;;5.86;100.00;98834.56;5069452;28;20316;-66
2021/09/23 01:37:38;;;;;;;7.60;5.77;;;;;;;5.83;100.00;98823.41;5075343;28;20228;-68
2021/09/23 01:40:10;;;;;;;5.63;5.03;;;;;;;5.77;100.00;98828.16;5066009;28;20424;-67
2021/09/23 01:42:38;;;;;;;5.47;4.97;;;;;;;5.77;100.00;98825.53;5038074;28;20222;-67
2021/09/23 01:45:07;;;;;;;6.37;5.77;;;;;;;5.70;100.00;98821.69;5063144;28;20519;-68
2021/09/23 01:47:35;;;;;;;6.00;5.43;;;;;;;5.70;100.00;98826.13;5061279;28;20214;-67
2021/09/23 01:50:04;;;;;;;6.20;5.60;;;;;;;5.66;100.00;98828.13;5065840;28;20227;-66
2021/09/23 01:52:32;;;;;;;6.47;5.97;;;;;;;5.69;100.00;98835.78;5071835;28;20578;-67
2021/09/23 01:55:00;;;;;;;6.20;5.60;;;;;;;5.61;100.00;98828.44;5069633;28;20209;-67
2021/09/23 01:57:30;;;;;;;5.90;5.43;;;;;;;5.57;100.00;98827.00;5036093;28;20683;-66
2021/09/23 01:59:58;;;;;;;6.23;5.67;;;;;;;5.62;100.00;98827.50;5066607;28;20222;-66
2021/09/23 02:02:26;;;;;;;6.73;5.67;;;;;;;5.58;100.00;98825.22;5074462;28;20210;-67
2021/09/23 02:04:55;;;;;;;6.13;5.53;;;;;;;5.60;100.00;98820.69;5055395;28;20675;-66
2021/09/23 02:07:23;;;;;;;6.17;5.47;;;;;;;5.54;100.00;98816.72;5071646;28;20427;-68
2021/09/23 02:09:51;;;;;;;6.20;5.70;;;;;;;5.48;100.00;98810.09;5072900;28;20226;-67
2021/09/23 02:12:21;;;;;;;6.37;5.87;;;;;;;5.60;100.00;98820.69;5037325;28;20634;-68
2021/09/23 02:14:52;;;;;;;6.03;5.43;;;;;;;5.52;100.00;98817.78;5067780;28;20202;-66
2021/09/23 02:17:20;;;;;;;6.37;5.77;;;;;;;5.46;100.00;98819.88;5073426;28;20904;-67
2021/09/23 02:19:48;;;;;;;8.37;6.43;;;;;;;5.47;100.00;98807.59;5059688;28;20823;-66
2021/09/23 02:22:16;;;;;;;6.23;5.63;;;;;;;5.48;100.00;98791.69;5066716;28;20387;-68
2021/09/23 02:24:45;;;;;;;7.97;6.40;;;;;;;5.46;100.00;98801.47;5073774;28;20205;-68
2021/09/23 02:27:13;;;;;;;5.63;5.17;;;;;;;5.43;100.00;98799.06;5070523;28;20240;-68
2021/09/23 02:29:41;;;;;;;6.97;5.73;;;;;;;5.43;100.00;98796.44;5038252;28;20322;-67
2021/09/23 02:32:11;;;;;;;6.77;6.13;;;;;;;5.50;100.00;98794.22;5067632;28;20229;-68
2021/09/23 02:34:39;;;;;;;5.93;5.33;;;;;;;5.46;100.00;98783.06;5072641;28;20248;-67
2021/09/23 02:37:07;;;;;;;6.93;5.60;;;;;;;5.41;100.00;98790.47;5054276;28;20319;-68
2021/09/23 02:39:36;;;;;;;5.83;5.33;;;;;;;5.42;100.00;98775.53;5071738;28;20218;-67
2021/09/23 02:42:04;;;;;;;6.30;5.57;;;;;;;5.35;100.00;98767.25;5071514;28;20370;-67
2021/09/23 02:44:32;;;;;;;7.43;6.00;;;;;;;5.29;100.00;98762.44;5041261;28;20217;-67
2021/09/23 02:47:00;;;;;;;8.23;5.97;;;;;;;5.24;100.00;98767.22;5076637;28;20210;-67
2021/09/23 02:49:29;;;;;;;7.40;5.93;;;;;;;5.25;100.00;98763.63;5038369;28;20241;-66
2021/09/23 02:51:58;;;;;;;6.43;5.57;;;;;;;5.22;100.00;98754.16;5078242;28;20210;-67
2021/09/23 02:54:26;;;;;;;6.73;6.03;;;;;;;5.21;100.00;98749.84;5072686;28;20207;-66
2021/09/23 02:56:54;;;;;;;5.97;5.53;;;;;;;5.21;100.00;98741.97;5077443;28;20202;-67
2021/09/23 02:59:22;;;;;;;7.33;6.20;;;;;;;5.20;100.00;98737.66;5071670;28;20237;-67
2021/09/23 03:01:50;;;;;;;5.87;5.37;;;;;;;5.29;100.00;98730.91;5077710;28;20570;-67
2021/09/23 03:04:18;;;;;;;9.43;5.90;;;;;;;5.42;100.00;98722.97;5033524;28;20214;-67
2021/09/23 03:06:48;;;;;;;7.07;5.47;;;;;;;5.52;100.00;98716.06;5059064;28;20527;-67
2021/09/23 03:09:16;;;;;;;6.27;5.70;;;;;;;5.47;100.00;98719.03;5074301;28;21041;-66
2021/09/23 03:11:44;;;;;;;7.53;5.93;;;;;;;5.38;100.00;98729.41;5065244;28;20315;-67
2021/09/23 03:14:12;;;;;;;6.27;5.43;;;;;;;5.43;100.00;98729.91;5077866;28;20206;-67
2021/09/23 03:16:40;;;;;;;5.97;5.47;;;;;;;5.39;100.00;98725.81;5080088;28;20198;-68
2021/09/23 03:19:08;;;;;;;6.13;5.70;;;;;;;5.39;100.00;98718.75;5077341;28;20690;-67
2021/09/23 03:21:38;;;;;;;5.60;5.20;;;;;;;5.38;100.00;98711.84;5043975;28;20294;-68
2021/09/23 03:24:07;;;;;;;6.07;5.57;;;;;;;5.28;100.00;98706.41;5077758;28;20206;-67
2021/09/23 03:26:35;;;;;;;6.77;6.17;;;;;;;5.31;100.00;98706.22;5072130;28;20210;-67
2021/09/23 03:29:05;;;;;;;7.00;6.33;;;;;;;5.29;100.00;98707.25;5065249;28;20226;-68
2021/09/23 03:31:33;;;;;;;6.30;5.70;;;;;;;5.36;100.00;98697.97;5073170;28;20279;-67
2021/09/23 03:34:01;;;;;;;6.10;5.60;;;;;;;5.25;100.00;98688.25;5072758;28;20238;-68
2021/09/23 03:36:30;;;;;;;5.87;5.33;;;;;;;5.26;100.00;98689.09;5035055;28;20210;-66
2021/09/23 03:38:58;;;;;;;6.73;6.13;;;;;;;5.33;100.00;98693.78;5063516;28;20226;-67
2021/09/23 03:41:30;;;;;;;7.53;5.87;;;;;;;5.25;100.00;98693.50;5039828;28;20225;-65
2021/09/23 03:43:58;;;;;;;5.97;5.40;;;;;;;5.23;100.00;98692.78;5057054;28;21794;-67
2021/09/23 03:46:26;;;;;;;7.07;6.17;;;;;;;5.20;100.00;98680.72;5063894;28;20221;-65
2021/09/23 03:48:54;;;;;;;5.83;5.33;;;;;;;5.12;100.00;98680.44;5065764;28;20308;-66
2021/09/23 03:51:26;;;;;;;7.00;6.40;;;;;;;5.05;100.00;98673.94;5036570;28;20221;-66
2021/09/23 03:53:54;;;;;;;7.00;6.40;;;;;;;5.01;100.00;98665.47;5067363;28;20380;-66
2021/09/23 03:56:22;;;;;;;6.67;6.07;;;;;;;5.00;100.00;98668.19;5076986;28;20624;-67
2021/09/23 03:58:51;;;;;;;6.80;6.10;;;;;;;4.96;100.00;98669.34;5056106;28;20539;-66
2021/09/23 04:01:19;;;;;;;6.40;5.50;;;;;;;4.91;100.00;98665.28;5061133;28;20206;-66
2021/09/23 04:03:48;;;;;;;5.50;5.03;;;;;;;4.98;100.00;98667.47;5069810;28;20263;-66
2021/09/23 04:06:17;;;;;;;6.13;5.63;;;;;;;4.90;100.00;98658.34;5038661;28;20221;-66
2021/09/23 04:08:45;;;;;;;6.60;6.00;;;;;;;5.13;100.00;98657.63;5063197;28;20221;-67
2021/09/23 04:11:13;;;;;;;6.77;6.20;;;;;;;4.98;100.00;98662.22;5057875;28;20245;-65
2021/09/23 04:13:41;;;;;;;6.67;6.07;;;;;;;4.97;100.00;98665.78;5070629;28;20202;-66
2021/09/23 04:16:10;;;;;;;9.97;6.40;;;;;;;4.93;100.00;98666.00;5048292;28;20217;-65
2021/09/23 04:18:38;;;;;;;6.73;6.10;;;;;;;4.96;100.00;98664.09;5070983;28;20222;-70
2021/09/23 04:21:06;;;;;;;6.80;6.17;;;;;;;4.84;100.00;98666.69;5055461;28;20569;-70
2021/09/23 04:23:35;;;;;;;6.63;6.13;;;;;;;4.77;100.00;98673.34;5051958;28;20207;-69
2021/09/23 04:26:03;;;;;;;6.23;5.70;;;;;;;4.81;100.00;98672.16;5073437;28;20198;-71
2021/09/23 04:28:31;;;;;;;6.43;5.83;;;;;;;4.78;100.00;98680.25;5057459;28;20230;-70
2021/09/23 04:30:59;;;;;;;7.20;5.67;;;;;;;4.74;100.00;98689.31;5048493;28;20237;-69
2021/09/23 04:33:29;;;;;;;6.30;5.73;;;;;;;4.68;100.00;98684.47;5073876;28;20206;-68
2021/09/23 04:35:57;;;;;;;6.50;5.97;;;;;;;4.61;100.00;98677.03;5058700;28;20427;-68
2021/09/23 04:38:25;;;;;;;6.20;5.70;;;;;;;4.59;100.00;98667.59;5033727;28;20230;-70
2021/09/23 04:40:53;;;;;;;6.10;5.53;;;;;;;4.57;100.00;98651.13;5059247;28;20202;-69
2021/09/23 04:43:22;;;;;;;9.73;6.30;;;;;;;4.68;100.00;98659.06;5074495;28;20289;-68
2021/09/23 04:45:50;;;;;;;6.33;5.73;;;;;;;4.67;100.00;98656.53;5042965;28;20213;-69
2021/09/23 04:48:18;;;;;;;8.10;6.93;;;;;;;4.86;100.00;98658.69;5065714;28;20212;-69
2021/09/23 04:50:47;;;;;;;8.03;6.07;;;;;;;4.82;100.00;98663.34;5074542;28;20295;-70
2021/09/23 04:53:15;;;;;;;7.33;6.63;;;;;;;4.78;100.00;98656.63;5040717;28;20217;-69
2021/09/23 04:55:43;;;;;;;9.03;6.43;;;;;;;4.83;100.00;98653.66;5071350;28;20202;-72
2021/09/23 04:58:11;;;;;;;7.17;6.53;;;;;;;4.83;100.00;98645.78;5028381;28;20210;-69
2021/09/23 05:00:39;;;;;;;9.27;6.83;;;;;;;4.82;100.00;98650.19;5057346;28;20206;-70
2021/09/23 05:03:07;;;;;;;6.90;6.30;;;;;;;4.83;100.00;98651.88;5064246;28;20489;-70
2021/09/23 05:05:35;;;;;;;6.67;6.07;;;;;;;4.80;100.00;98649.47;5060835;28;20206;-68
2021/09/23 05:08:05;;;;;;;9.80;6.00;;;;;;;5.08;100.00;98650.06;5069526;28;20202;-70
2021/09/23 05:10:35;;;;;;;7.20;6.50;;;;;;;5.15;100.00;98647.84;5072387;28;20684;-71
2021/09/23 05:13:03;;;;;;;10.43;7.40;;;;;;;5.10;100.00;98642.91;5034863;28;20204;-71
2021/09/23 05:15:31;;;;;;;11.27;7.13;;;;;;;5.14;100.00;98646.16;5065963;28;20633;-69
2021/09/23 05:17:59;;;;;;;9.53;7.40;;;;;;;5.09;100.00;98645.66;5068062;28;20574;-70
2021/09/23 05:20:27;;;;;;;9.47;6.53;;;;;;;5.17;100.00;98643.31;5061368;28;20241;-69
2021/09/23 05:22:55;;;;;;;9.30;6.80;;;;;;;5.32;100.00;98639.56;5066491;28;20411;-71
2021/09/23 05:25:27;;;;;;;7.47;6.37;;;;;;;5.27;100.00;98633.78;5066994;28;20571;-69
2021/09/23 05:27:55;;;;;;;7.43;6.10;;;;;;;5.02;100.00;98629.50;5069217;28;20700;-71
2021/09/23 05:30:23;;;;;;;6.57;5.80;;;;;;;5.13;100.00;98634.81;5039843;28;20225;-70
2021/09/23 05:32:53;;;;;;;6.30;5.70;;;;;;;5.14;100.00;98623.38;5068060;28;20226;-72
2021/09/23 05:35:21;;;;;;;7.00;5.50;;;;;;;4.99;100.00;98632.34;5061936;28;20597;-69
2021/09/23 05:37:49;;;;;;;5.47;5.00;;;;;;;4.95;100.00;98628.28;5071719;28;20240;-69
2021/09/23 05:40:17;;;;;;;6.47;5.87;;;;;;;4.95;100.00;98618.63;5068773;28;20438;-70
2021/09/23 05:42:46;;;;;;;6.63;6.13;;;;;;;4.95;100.00;98617.78;5060769;28;20206;-68
2021/09/23 05:45:14;;;;;;;5.87;5.27;;;;;;;5.10;100.00;98621.88;5034632;28;20741;-69
2021/09/23 05:47:43;;;;;;;6.50;6.00;;;;;;;5.16;100.00;98620.59;5055170;28;20211;-69
2021/09/23 05:50:12;;;;;;;6.77;6.17;;;;;;;5.42;100.00;98630.97;5055995;28;20441;-69
2021/09/23 05:52:40;;;;;;;6.60;6.10;;;;;;;5.50;100.00;98629.44;5059529;28;20226;-69
2021/09/23 05:55:09;;;;;;;6.10;5.60;;;;;;;5.73;100.00;98618.13;5066822;28;20945;-71
2021/09/23 05:57:37;;;;;;;6.80;6.20;;;;;;;5.67;100.00;98623.81;5072352;28;20233;-68
2021/09/23 06:00:09;;;;;;;7.00;6.23;;;;;;;5.55;100.00;98629.06;5029894;28;20458;-68
2021/09/23 06:02:37;;;;;;;7.00;6.37;;;;;;;5.52;100.00;98621.41;5068652;28;20203;-70
2021/09/23 06:05:06;;;;;;;6.90;6.30;;;;;;;5.57;100.00;98618.47;5059947;28;20502;-68
2021/09/23 06:07:34;;;;;;;6.83;6.13;;;;;;;5.65;100.00;98616.06;5051872;28;20217;-68
2021/09/23 06:10:02;;;;;;;7.77;7.10;;;;;;;5.79;100.00;98620.28;5071827;28;20230;-68
2021/09/23 06:12:31;;;;;;;6.80;6.10;;;;;;;5.94;100.00;98618.25;5070839;28;20218;-67
2021/09/23 06:14:59;;;;;;;7.23;6.33;;;;;;;5.95;100.00;98612.03;5042365;28;20206;-68
2021/09/23 06:17:29;;;;;;;7.23;6.63;;;;;;;6.12;100.00;98607.28;5067489;28;20209;-67
2021/09/23 06:19:57;;;;;;;9.17;6.70;;;;;;;6.19;100.00;98616.34;5058423;28;20246;-68
2021/09/23 06:22:25;;;;;;;7.50;6.93;;;;;;;6.18;100.00;98617.31;5057662;28;20202;-68
2021/09/23 06:24:53;;;;;;;7.50;6.90;;;;;;;6.28;100.00;98612.16;5055815;28;20214;-68
2021/09/23 06:27:21;;;;;;;8.87;6.33;;;;;;;6.32;100.00;98611.81;5066620;28;20206;-70
2021/09/23 06:29:50;;;;;;;7.27;6.67;;;;;;;6.35;100.00;98603.66;5056237;28;20684;-68
2021/09/23 06:32:18;;;;;;;7.70;6.87;;;;;;;6.46;100.00;98612.50;5053297;28;20484;-70
2021/09/23 06:34:48;;;;;;;7.47;6.77;;;;;;;6.51;100.00;98608.56;5057721;28;20344;-68
2021/09/23 06:37:36;;;;;;;7.27;6.63;;;;;;;6.70;100.00;98600.97;5055824;28;20283;-68
2021/09/23 06:40:05;;;;;;;7.73;7.13;;;;;;;6.73;100.00;98591.00;5051701;28;20859;-68
2021/09/23 06:42:33;;;;;;;7.27;6.57;;;;;;;6.93;100.00;98591.19;5065716;28;20210;-68
2021/09/23 06:45:01;;;;;;;7.47;6.80;;;;;;;7.10;100.00;98582.72;5064285;28;20209;-68
2021/09/23 06:47:29;;;;;;;7.80;6.70;;;;;;;7.30;100.00;98590.78;5034663;28;20240;-70
2021/09/23 06:49:58;;;;;;;7.20;6.60;;;;;;;7.30;100.00;98588.13;5055820;28;20236;-67
2021/09/23 06:52:27;;;;;;;7.37;6.63;;;;;;;7.43;100.00;98581.81;5073494;28;20639;-66
2021/09/23 06:54:55;;;;;;;6.70;6.07;;;;;;;7.52;100.00;98586.31;5049722;28;20214;-69
2021/09/23 06:57:23;;;;;;;7.30;6.60;;;;;;;7.61;100.00;98587.34;5076367;28;20211;-70
2021/09/23 06:59:51;;;;;;;8.10;6.40;;;;;;;7.86;100.00;98578.16;5068846;28;20234;-68
2021/09/23 07:02:19;;;;;;;7.90;7.13;;;;;;;7.92;100.00;98582.06;5034602;28;20618;-67
2021/09/23 07:04:48;;;;;;;6.97;6.47;;;;;;;8.05;100.00;98582.69;5070580;28;20206;-68
2021/09/23 07:07:17;;;;;;;9.17;6.57;;;;;;;8.26;100.00;98569.41;5015758;28;20268;-69
2021/09/23 07:09:46;;;;;;;6.97;6.37;;;;;;;8.32;100.00;98569.81;5070025;28;20225;-68
2021/09/23 07:12:15;;;;;;;7.33;6.63;;;;;;;8.43;100.00;98571.53;5068907;28;20223;-68
2021/09/23 07:14:47;;;;;;;8.30;7.30;;;;;;;8.64;100.00;98574.94;5061758;28;20210;-68
2021/09/23 07:17:15;;;;;;;7.80;6.47;;;;;;;8.75;100.00;98570.50;5068663;28;20217;-68
2021/09/23 07:19:43;;;;;;;8.00;6.40;;;;;;;8.84;100.00;98574.94;5072887;28;20230;-69
2021/09/23 07:22:11;;;;;;;8.33;6.90;;;;;;;9.04;100.00;98577.59;5028347;28;20973;-67
2021/09/23 07:24:40;;;;;;;6.80;6.20;;;;;;;9.20;100.00;98580.50;5069312;28;20198;-70
2021/09/23 07:27:08;;;;;;;6.97;6.30;;;;;;;9.31;100.00;98576.06;5070884;28;20210;-67
2021/09/23 07:29:36;;;;;;;7.07;6.37;;;;;;;9.49;100.00;98581.44;5062930;28;20777;-68
2021/09/23 07:32:05;;;;;;;6.27;5.77;;;;;;;9.60;100.00;98583.06;5074747;28;20336;-67
2021/09/23 07:34:33;;;;;;;6.97;6.27;;;;;;;9.78;100.00;98572.56;5074982;28;20540;-68
2021/09/23 07:37:01;;;;;;;8.87;6.47;;;;;;;9.88;100.00;98572.53;5042025;28;20263;-67
2021/09/23 07:39:29;;;;;;;6.77;6.07;;;;;;;10.02;100.00;98572.06;5067454;28;20808;-66
2021/09/23 07:41:59;;;;;;;6.70;6.10;;;;;;;10.31;100.00;98572.91;5070834;28;20218;-67
2021/09/23 07:44:26;;;;;;;6.60;6.07;;;;;;;10.38;100.00;98566.03;5062525;28;20434;-69
2021/09/23 07:46:59;;;;;;;7.37;6.07;;;;;;;10.65;100.00;98561.72;5072430;28;20202;-69
2021/09/23 07:49:27;;;;;;;6.57;5.87;;;;;;;10.69;100.00;98565.72;5073540;28;20222;-69
2021/09/23 07:51:55;;;;;;;9.03;6.10;;;;;;;10.80;100.00;98567.34;5039945;28;20210;-68
2021/09/23 07:54:23;;;;;;;7.30;5.93;;;;;;;10.85;100.00;98549.97;5066448;28;20206;-68
2021/09/23 07:56:51;;;;;;;6.13;5.53;;;;;;;11.09;100.00;98545.88;5075649;28;20202;-68
2021/09/23 07:59:21;;;;;;;6.20;5.63;;;;;;;11.28;100.00;98550.16;5061613;28;20518;-68
2021/09/23 08:01:49;;;;;;;6.00;5.47;;;;;;;11.35;100.00;98555.66;5072504;28;20264;-68
2021/09/23 08:04:17;;;;;;;6.03;5.50;;;;;;;11.41;100.00;98562.16;5072676;28;20672;-69
2021/09/23 08:06:45;;;;;;;5.83;5.43;;;;;;;11.65;100.00;98553.53;5071346;28;20238;-67
2021/09/23 08:09:13;;;;;;;5.90;5.33;;;;;;;11.83;100.00;98550.00;5033572;28;20610;-68
2021/09/23 08:11:41;;;;;;;6.73;5.13;;;;;;;11.90;100.00;98548.34;5075407;28;20633;-67
2021/09/23 08:14:09;;;;;;;8.30;5.60;;;;;;;12.07;100.00;98538.66;5071862;28;20219;-67
2021/09/23 08:16:39;;;;;;;8.77;5.60;;;;;;;12.29;100.00;98531.94;5060625;28;20382;-67
2021/09/23 08:19:07;;;;;;;6.13;5.27;;;;;;;12.44;100.00;98540.09;5073539;28;20738;-67
2021/09/23 08:21:35;;;;;;;6.30;5.07;;;;;;;12.57;100.00;98536.13;5069663;28;20214;-69
2021/09/23 08:24:03;;;;;;;7.80;5.27;;;;;;;12.69;100.00;98532.19;5032200;28;20213;-69
2021/09/23 08:26:31;;;;;;;5.60;5.00;;;;;;;12.86;100.00;98522.38;5068982;28;20521;-69
2021/09/23 08:28:59;;;;;;;6.67;4.93;;;;;;;13.03;100.00;98528.53;5072740;28;20308;-68
2021/09/23 08:31:27;;;;;;;4.90;4.33;;;;;;;13.24;100.00;98524.53;5062098;28;20904;-67
2021/09/23 08:33:56;;;;;;;5.57;5.07;;;;;;;13.28;100.00;98522.38;5079090;28;20279;-70
2021/09/23 08:36:24;;;;;;;5.07;4.67;;;;;;;13.48;100.00;98522.88;5068806;28;20512;-68
2021/09/23 08:38:52;;;;;;;5.63;4.60;;;;;;;13.63;100.00;98514.97;5033923;28;20231;-69
2021/09/23 08:41:20;;;;;;;5.63;4.40;;;;;;;13.73;100.00;98509.47;5067816;28;20210;-69
2021/09/23 08:43:48;;;;;;;6.23;5.00;;;;;;;13.95;100.00;98509.72;5074628;28;20202;-68
2021/09/23 08:46:17;;;;;;;5.07;4.53;;;;;;;14.03;100.00;98515.03;5070080;28;20225;-66
2021/09/23 08:48:45;;;;;;;4.93;4.43;;;;;;;14.29;100.00;98508.56;5062862;28;20234;-68
2021/09/23 08:51:14;;;;;;;5.47;4.60;;;;;;;14.29;100.00;98498.72;5069663;28;20248;-67
2021/09/23 08:53:42;;;;;;;5.07;4.33;;;;;;;14.44;100.00;98498.00;5037718;28;20371;-68
2021/09/23 08:56:12;;;;;;;4.93;4.43;;;;;;;14.42;100.00;98498.16;5066481;28;20203;-69
2021/09/23 08:58:40;;;;;;;5.23;4.80;;;;;;;14.53;100.00;98502.25;5076220;28;20689;-68
2021/09/23 09:01:10;;;;;;;4.77;4.37;;;;;;;14.54;100.00;98500.41;5072401;28;20202;-69
2021/09/23 09:03:39;;;;;;;6.07;4.20;;;;;;;14.65;100.00;98494.66;5063604;28;20198;-69
2021/09/23 09:06:08;;;;;;;5.07;4.60;;;;;;;14.83;100.00;98486.41;5073293;28;20232;-68
2021/09/23 09:08:38;;;;;;;4.87;4.47;;;;;;;15.02;100.00;98481.56;5038530;28;21230;-70
2021/09/23 09:11:08;;;;;;;4.10;3.73;;;;;;;15.09;100.00;98482.47;5062090;28;20202;-69
2021/09/23 09:13:40;;;;;;;4.50;4.00;;;;;;;15.18;100.00;98467.22;5033800;28;20222;-70
2021/09/23 09:16:09;;;;;;;4.07;3.70;;;;;;;15.24;100.00;98471.03;5070485;28;20372;-69
2021/09/23 09:18:38;;;;;;;3.87;3.57;;;;;;;15.40;100.00;98460.16;5069833;28;20222;-71
2021/09/23 09:21:09;;;;;;;4.23;3.87;;;;;;;15.46;100.00;98461.28;5072669;28;20315;-71
2021/09/23 09:23:46;;;;;;;4.40;3.57;;;;;;;15.66;100.00;98450.84;5056890;28;20195;-71
2021/09/23 09:26:20;;;;;;;4.63;4.03;;;;;;;15.78;100.00;98454.69;5070927;28;20327;-70
2021/09/23 09:28:50;;;;;;;6.03;3.87;;;;;;;15.90;100.00;98457.75;5040940;28;20237;-70
2021/09/23 09:31:18;;;;;;;3.93;3.53;;;;;;;15.74;100.00;98457.94;5057858;28;20238;-71
2021/09/23 09:33:48;;;;;;;3.50;3.20;;;;;;;16.14;100.00;98447.75;5073875;28;20261;-70
2021/09/23 09:36:28;;;;;;;3.67;3.37;;;;;;;16.16;100.00;98450.22;5060558;28;20206;-70
2021/09/23 09:38:59;;;;;;;3.83;3.40;;;;;;;16.19;100.00;98452.53;5074246;28;20233;-67
2021/09/23 09:41:28;;;;;;;3.60;3.33;;;;;;;16.29;100.00;98446.88;5070986;28;20829;-68
2021/09/23 09:43:58;;;;;;;4.33;3.90;;;;;;;16.53;100.00;98451.00;5023603;28;20629;-65
2021/09/23 09:46:28;;;;;;;4.30;3.87;;;;;;;16.59;100.00;98439.53;5068905;28;20225;-68
2021/09/23 09:48:57;;;;;;;3.97;3.53;;;;;;;16.63;100.00;98440.00;5052012;28;20237;-67
2021/09/23 09:51:36;;;;;;;4.97;3.53;;;;;;;16.80;100.00;98432.53;5057483;28;20293;-69
2021/09/23 09:54:07;;;;;;;3.77;3.23;;;;;;;16.97;100.00;98432.22;5068190;28;20481;-67
2021/09/23 09:56:35;;;;;;;6.80;3.97;;;;;;;16.97;100.00;98419.69;5073184;28;20210;-71
2021/09/23 09:59:12;;;;;;;4.50;3.67;;;;;;;17.11;100.00;98419.81;5033247;28;21844;-70
2021/09/23 10:01:41;;;;;;;3.50;3.20;;;;;;;17.25;100.00;98404.66;5068650;28;20641;-68
2021/09/23 10:04:11;;;;;;;4.30;3.13;;;;;;;17.28;100.00;98398.91;5071172;28;20304;-66
2021/09/23 10:06:40;;;;;;;3.80;3.50;;;;;;;17.40;100.00;98413.38;5073330;28;20497;-67
2021/09/23 10:09:12;;;;;;;4.47;3.57;;;;;;;17.53;100.00;98411.81;5061732;28;20274;-67
2021/09/23 10:11:42;;;;;;;3.60;2.90;;;;;;;17.39;100.00;98405.56;5070018;28;20259;-67
2021/09/23 10:14:11;;;;;;;3.73;2.90;;;;;;;17.41;100.00;98401.63;5070181;28;20435;-68
2021/09/23 10:16:40;;;;;;;4.30;3.00;;;;;;;17.35;100.00;98400.59;5034066;28;20218;-67
2021/09/23 10:19:09;;;;;;;4.43;2.80;;;;;;;17.68;100.00;98401.75;5067069;28;20901;-68
2021/09/23 10:21:38;;;;;;;3.33;3.03;;;;;;;17.82;100.00;98389.25;5072471;28;20202;-69
2021/09/23 10:24:07;;;;;;;3.50;3.20;;;;;;;17.96;100.00;98384.75;5056928;28;20791;-65
2021/09/23 10:26:38;;;;;;;2.80;2.50;;;;;;;18.32;100.00;98380.94;5073079;28;20208;-68
2021/09/23 10:29:07;;;;;;;3.23;2.93;;;;;;;18.43;94.33;98384.03;5059821;28;20458;-68
2021/09/23 10:31:36;;;;;;;3.57;3.27;;;;;;;18.54;88.17;98375.34;5024383;28;20222;-68
2021/09/23 10:34:06;;;;;;;5.37;3.40;;;;;;;18.64;91.29;98380.31;5063829;28;20965;-68
2021/09/23 10:36:35;;;;;;;3.03;2.93;;;;;;;19.05;82.57;98373.88;5069491;28;20202;-68
2021/09/23 10:39:06;;;;;;;2.83;2.63;;;;;;;19.15;81.79;98370.78;5060011;28;20697;-68
2021/09/23 10:41:38;;;;;;;3.80;2.90;;;;;;;19.02;84.22;98378.88;5067934;28;20206;-68
2021/09/23 10:44:07;;;;;;;3.47;2.97;;;;;;;18.82;80.16;98376.19;5063918;28;20210;-68
2021/09/23 10:46:36;;;;;;;3.07;2.77;;;;;;;18.88;77.06;98380.72;5053558;28;20209;-69
2021/09/23 10:49:07;;;;;;;2.73;2.63;;;;;;;19.07;79.99;98369.13;5058096;28;20324;-68
2021/09/23 10:51:36;;;;;;;3.63;2.93;;;;;;;19.19;80.52;98382.75;5069262;28;20801;-68
2021/09/23 10:54:05;;;;;;;3.17;2.97;;;;;;;19.55;78.83;98380.59;5066061;28;20514;-70
2021/09/23 10:56:34;;;;;;;3.40;3.10;;;;;;;19.59;74.25;98380.97;5076156;28;20206;-69
2021/09/23 10:59:05;;;;;;;6.40;3.00;;;;;;;19.82;77.35;98372.38;5066668;28;20536;-69
2021/09/23 11:01:36;;;;;;;2.77;2.50;;;;;;;19.85;70.92;98363.88;5075255;28;20202;-68
2021/09/23 11:04:24;;;;;;;2.63;2.47;;;;;;;19.79;75.04;98362.06;5040588;28;20237;-70
2021/09/23 11:06:56;;;;;;;4.03;2.80;;;;;;;19.97;72.79;98355.19;5056059;28;20419;-71
2021/09/23 11:09:26;;;;;;;2.60;2.43;;;;;;;20.23;74.37;98352.28;5064346;28;20237;-68
2021/09/23 11:12:00;;;;;;;2.97;2.40;;;;;;;20.13;76.51;98348.47;5074100;28;20586;-69
2021/09/23 11:14:30;;;;;;;2.90;2.50;;;;;;;20.33;71.13;98341.03;5075203;28;20222;-68
2021/09/23 11:16:59;;;;;;;3.13;2.80;;;;;;;19.95;67.72;98342.78;5073530;28;20737;-70
2021/09/23 11:19:28;;;;;;;2.90;2.70;;;;;;;20.37;68.89;98328.78;5037055;28;20230;-69
2021/09/23 11:21:58;;;;;;;2.43;2.33;;;;;;;20.28;69.92;98338.19;5027735;28;20628;-67
2021/09/23 11:24:27;;;;;;;4.23;3.17;;;;;;;20.36;69.62;98329.03;5070874;28;20206;-68
2021/09/23 11:26:56;;;;;;;2.87;2.63;;;;;;;20.64;67.13;98328.56;5064821;28;20259;-67
2021/09/23 11:29:24;;;;;;;4.50;3.00;;;;;;;20.86;65.77;98313.91;5057817;28;20226;-67
2021/09/23 11:31:55;;;;;;;3.07;2.87;;;;;;;20.94;63.25;98305.53;5067932;28;20202;-68
2021/09/23 11:34:34;;;;;;;2.87;2.67;;;;;;;21.21;65.24;98310.63;5065546;28;20689;-68
2021/09/23 11:37:03;;;;;;;3.93;3.07;;;;;;;21.66;61.75;98295.97;5039422;28;20241;-67
2021/09/23 11:39:31;;;;;;;2.90;2.70;;;;;;;21.41;62.72;98291.50;5071163;28;20522;-69